createdAt,value
2022-12-15T00:00:39.439Z,65.92
2022-12-15T00:03:45.790Z,66.15
2022-12-15T00:06:32.619Z,66.17
2022-12-15T00:09:20.725Z,65.98
2022-12-15T00:12:07.588Z,66.02
2022-12-15T00:14:54.564Z,66.01
2022-12-15T00:17:41.153Z,65.95
2022-12-15T00:20:28.504Z,65.91
2022-12-15T00:23:15.403Z,66.12
2022-12-15T00:26:02.652Z,66.05
2022-12-15T00:28:51.162Z,66.17
2022-12-15T00:31:37.877Z,66.33
2022-12-15T00:34:25.264Z,66.37
2022-12-15T00:37:12.165Z,66.38
2022-12-15T00:39:40.442Z,66.29
2022-12-15T00:42:10.115Z,66.60
2022-12-15T00:44:38.216Z,66.29
2022-12-15T00:47:06.499Z,66.49
2022-12-15T00:49:53.261Z,66.75
2022-12-15T00:52:40.035Z,66.78
2022-12-15T00:55:27.415Z,66.62
2022-12-15T00:58:14.078Z,66.74
2022-12-15T01:00:53.926Z,66.55
2022-12-15T01:03:42.685Z,66.52
2022-12-15T01:06:38.125Z,66.60
2022-12-15T01:09:30.722Z,66.86
2022-12-15T01:12:18.166Z,66.76
2022-12-15T01:15:13.035Z,66.92
2022-12-15T01:18:03.245Z,66.97
2022-12-15T01:20:34.609Z,66.72
2022-12-15T01:23:02.926Z,66.72
2022-12-15T01:25:31.131Z,66.91
2022-12-15T01:27:59.367Z,66.89
2022-12-15T01:30:27.726Z,66.94
2022-12-15T01:32:55.837Z,66.68
2022-12-15T01:35:23.903Z,66.73
2022-12-15T01:37:52.063Z,66.85
2022-12-15T01:40:39.913Z,66.83
2022-12-15T01:43:30.954Z,66.95
2022-12-15T01:46:08.125Z,66.83
2022-12-15T01:48:42.658Z,67.07
2022-12-15T01:51:22.701Z,66.98
2022-12-15T01:54:03.677Z,66.97
2022-12-15T01:56:37.864Z,67.13
2022-12-15T01:59:11.079Z,67.07
2022-12-15T02:01:39.413Z,67.29
2022-12-15T02:04:12.466Z,67.28
2022-12-15T02:06:40.567Z,67.33
2022-12-15T02:09:08.938Z,67.21
2022-12-15T02:11:55.353Z,67.25
2022-12-15T02:14:52.304Z,67.30
2022-12-15T02:17:34.264Z,67.42
2022-12-15T02:20:45.936Z,67.47
2022-12-15T02:23:33.414Z,67.40
2022-12-15T02:26:29.671Z,67.37
2022-12-15T02:29:35.391Z,67.17
2022-12-15T02:32:13.762Z,67.33
2022-12-15T02:35:01.544Z,67.33
2022-12-15T02:37:37.269Z,67.42
2022-12-15T02:40:09.880Z,67.30
2022-12-15T02:42:46.562Z,67.48
2022-12-15T02:45:24.708Z,67.60
2022-12-15T02:48:02.752Z,67.68
2022-12-15T02:50:42.204Z,67.84
2022-12-15T02:53:28.915Z,67.65
2022-12-15T02:56:21.699Z,67.91
2022-12-15T02:59:11.316Z,67.91
2022-12-15T03:01:56.552Z,67.88
2022-12-15T03:04:26.594Z,68.12
2022-12-15T03:07:01.129Z,68.11
2022-12-15T03:09:33.261Z,68.29
2022-12-15T03:12:01.626Z,68.11
2022-12-15T03:14:29.899Z,68.28
2022-12-15T03:16:58.927Z,68.39
2022-12-15T03:19:27.248Z,68.50
2022-12-15T03:21:55.374Z,68.25
2022-12-15T03:24:23.497Z,68.41
2022-12-15T03:26:51.873Z,68.71
2022-12-15T03:29:20.105Z,68.75
2022-12-15T03:31:49.713Z,68.66
2022-12-15T03:34:18.503Z,68.67
2022-12-15T03:36:47.008Z,68.94
2022-12-15T03:39:15.115Z,68.73
2022-12-15T03:41:43.273Z,68.76
2022-12-15T03:44:11.410Z,68.80
2022-12-15T03:46:39.551Z,68.75
2022-12-15T03:49:07.694Z,68.94
2022-12-15T03:51:35.807Z,68.94
2022-12-15T03:54:04.085Z,69.03
2022-12-15T03:56:32.523Z,68.98
2022-12-15T03:59:00.700Z,68.94
2022-12-15T04:01:35.033Z,69.14
2022-12-15T04:04:04.716Z,69.09
2022-12-15T04:06:32.984Z,69.10
2022-12-15T04:09:01.128Z,69.22
2022-12-15T04:11:29.312Z,69.25
2022-12-15T04:13:57.430Z,69.29
2022-12-15T04:16:25.629Z,69.36
2022-12-15T04:19:13.742Z,69.39
2022-12-15T04:21:41.910Z,69.43
2022-12-15T04:24:28.647Z,69.47
2022-12-15T04:27:15.507Z,69.45
2022-12-15T04:30:02.091Z,69.25
2022-12-15T04:32:49.813Z,69.22
2022-12-15T04:35:37.254Z,69.40
2022-12-15T04:38:24.021Z,69.26
2022-12-15T04:41:10.903Z,69.10
2022-12-15T04:43:58.629Z,69.33
2022-12-15T04:46:45.390Z,69.37
2022-12-15T04:49:32.346Z,69.44
2022-12-15T04:52:19.290Z,69.67
2022-12-15T04:55:06.225Z,69.62
2022-12-15T04:57:53.715Z,69.49
2022-12-15T05:00:40.306Z,69.62
2022-12-15T05:03:27.547Z,69.69
2022-12-15T05:06:16.419Z,69.54
2022-12-15T05:09:03.077Z,69.78
2022-12-15T05:11:50.061Z,69.61
2022-12-15T05:14:36.901Z,69.77
2022-12-15T05:17:23.895Z,69.66
2022-12-15T05:20:10.862Z,69.64
2022-12-15T05:22:57.787Z,69.59
2022-12-15T05:25:44.739Z,69.67
2022-12-15T05:28:31.483Z,69.70
2022-12-15T05:31:18.666Z,69.51
2022-12-15T05:33:46.876Z,69.35
2022-12-15T05:36:15.066Z,69.46
2022-12-15T05:38:43.260Z,69.52
2022-12-15T05:41:11.381Z,69.57
2022-12-15T05:43:39.503Z,69.65
2022-12-15T05:46:07.613Z,69.74
2022-12-15T05:48:35.820Z,69.64
2022-12-15T05:51:08.244Z,69.64
2022-12-15T05:53:38.733Z,69.59
2022-12-15T05:56:12.436Z,69.57
2022-12-15T05:58:45.392Z,69.58
2022-12-15T06:01:18.680Z,69.63
2022-12-15T06:03:46.977Z,69.51
2022-12-15T06:06:15.445Z,69.68
2022-12-15T06:08:44.574Z,69.62
2022-12-15T06:11:15.572Z,69.59
2022-12-15T06:13:43.974Z,69.84
2022-12-15T06:16:12.228Z,69.81
2022-12-15T06:18:49.952Z,69.83
2022-12-15T06:21:24.592Z,69.99
2022-12-15T06:23:53.759Z,69.86
2022-12-15T06:26:24.308Z,69.75
2022-12-15T06:28:54.610Z,69.49
2022-12-15T06:31:25.428Z,69.45
2022-12-15T06:34:01.293Z,69.67
2022-12-15T06:36:33.162Z,69.24
2022-12-15T06:39:04.396Z,69.49
2022-12-15T06:41:33.113Z,69.61
2022-12-15T06:44:01.537Z,69.68
2022-12-15T06:46:31.749Z,69.70
2022-12-15T06:48:59.982Z,69.67
2022-12-15T06:51:28.803Z,69.54
2022-12-15T06:53:56.987Z,69.59
2022-12-15T06:56:36.209Z,69.53
2022-12-15T06:59:06.770Z,69.52
2022-12-15T07:01:35.892Z,69.30
2022-12-15T07:04:05.799Z,69.27
2022-12-15T07:06:38.698Z,69.47
2022-12-15T07:09:12.014Z,69.35
2022-12-15T07:11:40.556Z,69.17
2022-12-15T07:14:10.076Z,69.34
2022-12-15T07:16:39.236Z,69.44
2022-12-15T07:19:13.138Z,69.37
2022-12-15T07:21:41.693Z,69.04
2022-12-15T07:24:12.857Z,68.87
2022-12-15T07:26:41.654Z,68.82
2022-12-15T07:29:10.492Z,68.61
2022-12-15T07:31:38.809Z,68.64
2022-12-15T07:34:07.250Z,68.49
2022-12-15T07:36:35.441Z,68.45
2022-12-15T07:39:05.255Z,68.31
2022-12-15T07:41:33.747Z,68.62
2022-12-15T07:44:02.507Z,68.19
2022-12-15T07:46:30.848Z,68.53
2022-12-15T07:48:59.259Z,68.43
2022-12-15T07:51:27.848Z,68.47
2022-12-15T07:53:56.151Z,68.31
2022-12-15T07:56:24.308Z,68.41
2022-12-15T07:58:52.993Z,68.32
2022-12-15T08:01:21.431Z,68.36
2022-12-15T08:03:49.970Z,68.30
2022-12-15T08:06:18.244Z,68.20
2022-12-15T08:08:50.397Z,68.24
2022-12-15T08:11:22.114Z,68.39
2022-12-15T08:14:10.568Z,68.27
2022-12-15T08:16:39.164Z,68.32
2022-12-15T08:19:15.225Z,68.21
2022-12-15T08:21:48.498Z,68.17
2022-12-15T08:24:17.434Z,68.22
2022-12-15T08:26:49.885Z,68.28
2022-12-15T08:29:49.768Z,68.28
2022-12-15T08:32:07.758Z,68.22
2022-12-15T08:34:36.079Z,68.15
2022-12-15T08:37:04.498Z,68.11
2022-12-15T08:39:32.635Z,68.13
2022-12-15T08:42:00.831Z,68.01
2022-12-15T08:44:29.057Z,68.08
2022-12-15T08:46:57.215Z,68.01
2022-12-15T08:49:25.900Z,67.97
2022-12-15T08:51:54.019Z,67.84
2022-12-15T08:54:22.159Z,67.93
2022-12-15T08:56:50.584Z,67.79
2022-12-15T08:59:19.561Z,67.67
2022-12-15T09:01:48.207Z,67.75
2022-12-15T09:04:17.169Z,67.53
2022-12-15T09:06:48.537Z,67.53
2022-12-15T09:09:19.935Z,67.62
2022-12-15T09:11:49.509Z,67.57
2022-12-15T09:14:22.816Z,67.77
2022-12-15T09:16:55.547Z,67.49
2022-12-15T09:19:23.825Z,67.45
2022-12-15T09:21:52.083Z,67.36
2022-12-15T09:24:32.125Z,67.37
2022-12-15T09:27:00.791Z,67.32
2022-12-15T09:29:29.016Z,67.45
2022-12-15T09:31:57.214Z,67.29
2022-12-15T09:34:25.592Z,67.02
2022-12-15T09:36:53.692Z,67.02
2022-12-15T09:39:22.096Z,66.77
2022-12-15T09:41:58.478Z,66.77
2022-12-15T09:44:31.505Z,66.54
2022-12-15T09:48:01.132Z,66.36
2022-12-15T09:50:39.894Z,66.20
2022-12-15T09:53:45.496Z,66.20
2022-12-15T09:56:13.453Z,65.88
2022-12-15T09:59:05.664Z,66.02
2022-12-15T10:01:50.852Z,65.86
2022-12-15T10:04:47.752Z,65.63
2022-12-15T10:07:37.216Z,65.90
2022-12-15T10:10:34.957Z,65.83
2022-12-15T10:13:11.148Z,65.78
2022-12-15T10:15:52.889Z,65.96
2022-12-15T10:18:25.507Z,65.75
2022-12-15T10:20:55.054Z,65.51
2022-12-15T10:23:25.742Z,65.51
2022-12-15T10:26:15.480Z,65.01
2022-12-15T10:29:17.916Z,64.43
2022-12-15T10:32:05.267Z,64.81
2022-12-15T10:34:39.100Z,64.80
2022-12-15T10:37:18.462Z,64.21
2022-12-15T10:39:51.591Z,63.76
2022-12-15T10:42:27.191Z,63.79
2022-12-15T10:44:58.227Z,64.08
2022-12-15T10:47:31.371Z,63.93
2022-12-15T10:50:25.006Z,64.04
2022-12-15T10:52:53.645Z,63.86
2022-12-15T10:55:41.946Z,63.46
2022-12-15T10:58:28.237Z,63.19
2022-12-15T11:01:18.111Z,63.25
2022-12-15T11:03:47.151Z,62.94
2022-12-15T11:06:21.790Z,63.20
2022-12-15T11:08:53.804Z,63.38
2022-12-15T11:12:06.246Z,62.74
2022-12-15T11:14:51.022Z,62.98
2022-12-15T11:17:24.054Z,62.70
2022-12-15T11:20:06.293Z,63.24
2022-12-15T11:22:44.274Z,62.56
2022-12-15T11:25:45.298Z,62.88
2022-12-15T11:28:24.348Z,62.99
2022-12-15T11:31:13.175Z,62.68
2022-12-15T11:33:41.340Z,62.83
2022-12-15T11:36:28.157Z,63.07
2022-12-15T11:39:09.175Z,63.10
2022-12-15T11:42:14.496Z,63.01
2022-12-15T11:45:15.919Z,63.26
2022-12-15T11:48:05.331Z,63.29
2022-12-15T11:51:16.801Z,63.51
2022-12-15T11:53:47.684Z,63.60
2022-12-15T11:56:26.991Z,63.73
2022-12-15T11:59:29.552Z,64.16
2022-12-15T12:02:48.779Z,63.91
2022-12-15T12:05:39.963Z,64.00
2022-12-15T12:08:33.817Z,64.48
2022-12-15T12:11:16.984Z,64.26
2022-12-15T12:14:09.764Z,64.50
2022-12-15T12:17:13.907Z,64.64
2022-12-15T12:19:52.453Z,64.63
2022-12-15T12:22:40.793Z,64.68
2022-12-15T12:25:21.707Z,64.82
2022-12-15T12:27:54.166Z,65.27
2022-12-15T12:30:33.424Z,65.57
2022-12-15T12:33:47.133Z,65.92
2022-12-15T12:36:17.006Z,65.95
2022-12-15T12:38:50.788Z,65.90
2022-12-15T12:42:10.247Z,66.17
2022-12-15T12:44:39.091Z,66.43
2022-12-15T12:47:28.277Z,66.31
2022-12-15T12:50:06.925Z,66.59
2022-12-15T12:52:38.139Z,66.62
2022-12-15T12:55:14.484Z,66.69
2022-12-15T12:57:44.583Z,66.78
2022-12-15T13:00:32.978Z,66.78
2022-12-15T13:03:21.470Z,67.02
2022-12-15T13:05:51.741Z,66.89
2022-12-15T13:08:29.665Z,67.16
2022-12-15T13:11:36.617Z,67.34
2022-12-15T13:14:05.316Z,67.05
2022-12-15T13:16:40.219Z,67.31
2022-12-15T13:19:08.950Z,67.40
2022-12-15T13:21:48.661Z,67.66
2022-12-15T13:24:32.842Z,67.78
2022-12-15T13:27:10.188Z,67.74
2022-12-15T13:29:56.989Z,67.49
2022-12-15T13:32:36.860Z,67.84
2022-12-15T13:35:14.282Z,67.66
2022-12-15T13:37:50.783Z,68.10
2022-12-15T13:40:26.209Z,68.28
2022-12-15T13:43:26.310Z,68.05
2022-12-15T13:46:16.676Z,67.99
2022-12-15T13:48:54.312Z,68.14
2022-12-15T13:51:57.471Z,68.31
2022-12-15T13:54:40.236Z,68.53
2022-12-15T13:57:16.500Z,68.60
2022-12-15T14:00:02.096Z,68.76
2022-12-15T14:02:40.061Z,68.88
2022-12-15T14:05:15.282Z,69.10
2022-12-15T14:07:59.621Z,69.05
2022-12-15T14:10:34.722Z,69.18
2022-12-15T14:13:30.016Z,69.50
2022-12-15T14:16:07.497Z,69.09
2022-12-15T14:18:41.755Z,69.28
2022-12-15T14:21:26.974Z,69.44
2022-12-15T14:26:45.911Z,69.23
2022-12-15T14:29:19.119Z,69.23
2022-12-15T14:31:57.701Z,69.47
2022-12-15T14:34:38.999Z,69.60
2022-12-15T14:37:15.866Z,69.98
2022-12-15T14:39:50.218Z,69.57
2022-12-15T14:42:24.969Z,69.70
2022-12-15T14:44:57.819Z,69.99
2022-12-15T14:47:33.760Z,69.93
2022-12-15T14:50:04.288Z,69.91
2022-12-15T14:53:00.728Z,70.45
2022-12-15T14:55:38.271Z,70.22
2022-12-15T14:58:26.560Z,70.64
2022-12-15T15:00:55.975Z,70.57
2022-12-15T15:03:39.833Z,70.54
2022-12-15T15:06:11.110Z,70.80
2022-12-15T15:08:43.544Z,70.85
2022-12-15T15:11:37.194Z,70.79
2022-12-15T15:14:13.343Z,71.05
2022-12-15T15:16:42.986Z,70.96
2022-12-15T15:19:21.796Z,71.16
2022-12-15T15:21:50.592Z,70.90
2022-12-15T15:24:29.421Z,71.29
2022-12-15T15:27:23.918Z,71.08
2022-12-15T15:29:53.083Z,71.40
2022-12-15T15:32:23.051Z,71.11
2022-12-15T15:34:52.217Z,71.25
2022-12-15T15:37:24.278Z,71.24
2022-12-15T15:39:55.350Z,71.42
2022-12-15T15:42:27.898Z,71.30
2022-12-15T15:45:00.688Z,71.49
2022-12-15T15:47:29.069Z,71.40
2022-12-15T15:49:59.941Z,71.25
2022-12-15T15:52:31.939Z,71.39
2022-12-15T15:55:00.086Z,71.42
2022-12-15T15:57:28.222Z,71.48
2022-12-15T15:59:57.542Z,71.60
2022-12-15T16:02:25.792Z,71.57
2022-12-15T16:04:54.247Z,71.43
2022-12-15T16:07:25.729Z,71.68
2022-12-15T16:09:54.707Z,71.43
2022-12-15T16:12:39.626Z,71.43
2022-12-15T16:15:14.727Z,71.54
2022-12-15T16:17:44.022Z,71.43
2022-12-15T16:20:14.920Z,71.54
2022-12-15T16:22:47.028Z,71.43
2022-12-15T16:25:26.381Z,71.19
2022-12-15T16:27:54.689Z,71.07
2022-12-15T16:30:26.077Z,70.64
2022-12-15T16:32:55.657Z,70.71
2022-12-15T16:35:27.074Z,70.67
2022-12-15T16:37:55.243Z,70.99
2022-12-15T16:40:26.658Z,70.98
2022-12-15T16:42:58.904Z,71.07
2022-12-15T16:45:31.282Z,70.60
2022-12-15T16:47:59.476Z,70.89
2022-12-15T16:50:39.564Z,70.71
2022-12-15T16:53:20.437Z,70.71
2022-12-15T16:55:54.453Z,70.97
2022-12-15T16:58:25.207Z,70.87
2022-12-15T17:00:54.292Z,71.26
2022-12-15T17:03:25.908Z,71.17
2022-12-15T17:06:02.066Z,71.14
2022-12-15T17:08:44.988Z,71.07
2022-12-15T17:11:23.156Z,70.81
2022-12-15T17:13:53.958Z,71.17
2022-12-15T17:16:24.123Z,71.01
2022-12-15T17:18:52.495Z,71.24
2022-12-15T17:21:35.032Z,71.12
2022-12-15T17:24:11.458Z,71.65
2022-12-15T17:26:39.890Z,71.41
2022-12-15T17:29:15.495Z,71.26
2022-12-15T17:31:43.728Z,71.52
2022-12-15T17:34:24.498Z,71.46
2022-12-15T17:36:53.135Z,71.62
2022-12-15T17:39:23.380Z,71.81
2022-12-15T17:42:01.129Z,71.61
2022-12-15T17:44:37.373Z,71.81
2022-12-15T17:47:08.863Z,71.99
2022-12-15T17:49:38.826Z,71.90
2022-12-15T17:52:21.628Z,72.00
2022-12-15T17:54:51.514Z,71.89
2022-12-15T17:57:20.188Z,72.03
2022-12-15T17:59:48.726Z,72.08
2022-12-15T18:02:17.132Z,71.90
2022-12-15T18:04:45.465Z,71.81
2022-12-15T18:07:23.148Z,72.14
2022-12-15T18:09:52.448Z,71.92
2022-12-15T18:12:27.357Z,72.12
2022-12-15T18:14:57.048Z,72.01
2022-12-15T18:17:25.193Z,71.84
2022-12-15T18:19:53.531Z,72.23
2022-12-15T18:22:24.270Z,72.23
2022-12-15T18:24:54.237Z,72.30
2022-12-15T18:27:25.865Z,72.11
2022-12-15T18:29:55.339Z,72.30
2022-12-15T18:32:27.158Z,72.17
2022-12-15T18:34:55.675Z,72.36
2022-12-15T18:37:25.233Z,73.07
2022-12-15T18:39:53.595Z,72.68
2022-12-15T18:42:23.045Z,72.61
2022-12-15T18:44:53.077Z,72.98
2022-12-15T18:47:23.664Z,73.16
2022-12-15T18:49:52.013Z,73.41
2022-12-15T18:52:24.149Z,73.32
2022-12-15T18:54:54.245Z,73.41
2022-12-15T18:57:33.134Z,73.48
2022-12-15T19:00:30.305Z,73.12
2022-12-15T19:03:00.278Z,73.18
2022-12-15T19:05:29.306Z,73.42
2022-12-15T19:08:36.218Z,73.18
2022-12-15T19:11:17.831Z,73.52
2022-12-15T19:13:46.534Z,73.61
2022-12-15T19:16:20.463Z,73.16
2022-12-15T19:19:07.039Z,73.48
2022-12-15T19:21:56.283Z,73.27
2022-12-15T19:24:47.782Z,73.24
2022-12-15T19:27:20.223Z,73.56
2022-12-15T19:29:49.329Z,73.79
2022-12-15T19:32:17.471Z,73.52
2022-12-15T19:34:45.850Z,73.70
2022-12-15T19:37:26.038Z,73.85
2022-12-15T19:39:57.493Z,73.63
2022-12-15T19:42:35.570Z,74.04
2022-12-15T19:45:15.843Z,73.81
2022-12-15T19:47:44.842Z,74.11
2022-12-15T19:50:16.855Z,73.87
2022-12-15T19:52:49.108Z,73.83
2022-12-15T19:55:23.659Z,73.77
2022-12-15T19:57:51.796Z,73.96
2022-12-15T20:00:22.809Z,74.02
2022-12-15T20:02:54.828Z,74.11
2022-12-15T20:05:25.820Z,74.35
2022-12-15T20:07:55.176Z,74.03
2022-12-15T20:10:32.213Z,74.31
2022-12-15T20:13:03.404Z,74.03
2022-12-15T20:15:31.516Z,74.04
2022-12-15T20:18:00.283Z,73.87
2022-12-15T20:20:29.303Z,73.88
2022-12-15T20:23:12.597Z,74.10
2022-12-15T20:25:42.186Z,74.35
2022-12-15T20:28:23.665Z,74.18
2022-12-15T20:30:52.883Z,74.28
2022-12-15T20:33:21.426Z,74.20
2022-12-15T20:35:50.939Z,74.05
2022-12-15T20:38:46.513Z,74.08
2022-12-15T20:41:22.260Z,74.22
2022-12-15T20:43:51.554Z,74.07
2022-12-15T20:46:35.277Z,74.01
2022-12-15T20:49:04.740Z,74.31
2022-12-15T20:51:33.844Z,74.39
2022-12-15T20:54:02.861Z,74.58
2022-12-15T20:56:31.051Z,74.36
2022-12-15T20:58:59.344Z,74.63
2022-12-15T21:01:35.483Z,74.51
2022-12-15T21:04:27.123Z,74.59
2022-12-15T21:06:56.719Z,74.87
2022-12-15T21:09:25.099Z,74.89
2022-12-15T21:11:55.158Z,74.92
2022-12-15T21:14:24.485Z,74.90
2022-12-15T21:16:52.686Z,75.31
2022-12-15T21:19:22.467Z,75.15
2022-12-15T21:21:55.143Z,75.70
2022-12-15T21:24:27.687Z,75.29
2022-12-15T21:26:56.188Z,75.16
2022-12-15T21:29:27.930Z,75.38
2022-12-15T21:31:56.096Z,75.57
2022-12-15T21:34:24.324Z,75.46
2022-12-15T21:36:55.147Z,76.05
2022-12-15T21:42:19.182Z,75.98
2022-12-15T21:44:47.854Z,76.42
2022-12-15T21:47:50.306Z,75.97
2022-12-15T21:50:20.387Z,76.43
2022-12-15T21:52:48.741Z,76.30
2022-12-15T21:55:23.848Z,76.58
2022-12-15T21:57:52.576Z,76.46
2022-12-15T22:00:22.060Z,76.68
2022-12-15T22:02:52.918Z,76.59
2022-12-15T22:05:30.964Z,76.69
2022-12-15T22:08:11.696Z,76.91
2022-12-15T22:10:40.003Z,76.92
2022-12-15T22:13:22.173Z,76.66
2022-12-15T22:15:54.692Z,76.82
2022-12-15T22:18:23.673Z,76.77
2022-12-15T22:20:52.490Z,76.46
2022-12-15T22:23:20.597Z,76.59
2022-12-15T22:25:55.077Z,76.92
2022-12-15T22:28:26.365Z,76.82
2022-12-15T22:30:57.062Z,76.84
2022-12-15T22:33:28.126Z,76.67
2022-12-15T22:35:56.363Z,76.75
2022-12-15T22:38:25.035Z,76.62
2022-12-15T22:40:57.560Z,76.86
2022-12-15T22:43:44.352Z,76.85
2022-12-15T22:46:15.087Z,77.35
2022-12-15T22:48:47.557Z,77.34
2022-12-15T22:51:17.746Z,77.33
2022-12-15T22:53:46.117Z,77.66
2022-12-15T22:56:40.006Z,77.74
2022-12-15T22:59:12.724Z,77.81
2022-12-15T23:01:40.914Z,78.23
2022-12-15T23:04:09.194Z,77.91
2022-12-15T23:06:37.402Z,77.80
2022-12-15T23:09:05.560Z,77.76
2022-12-15T23:11:39.937Z,77.88
2022-12-15T23:14:15.509Z,78.25
2022-12-15T23:16:46.303Z,78.17
2022-12-15T23:19:24.034Z,78.42
2022-12-15T23:21:52.678Z,78.50
2022-12-15T23:24:20.812Z,78.39
2022-12-15T23:26:48.939Z,78.31
2022-12-15T23:29:17.605Z,78.15
2022-12-15T23:31:45.775Z,78.79
2022-12-15T23:34:13.974Z,78.55
2022-12-15T23:36:42.094Z,78.49
2022-12-15T23:39:10.194Z,78.43
2022-12-15T23:41:38.391Z,78.41
2022-12-15T23:44:06.576Z,78.57
2022-12-15T23:46:34.840Z,78.76
2022-12-15T23:49:03.005Z,79.07
2022-12-15T23:51:31.656Z,78.48
2022-12-15T23:53:59.810Z,78.82
2022-12-15T23:56:28.067Z,79.11
2022-12-15T23:58:58.527Z,78.93
